Time;durP1;ratioP1;P1;durP2;ratioP2;P2;SDS_P1;SDS_P2;PMS_P1;PMS_P2;Temp;Humidity;BMP_temperature;BMP_pressure;BME280_temperature;BME280_humidity;BME280_pressure;Samples;Min_cycle;Max_cycle;Signal;HPM_P1;HPM_P2
2023/10/30 00:01:33;;;;;;;17.63;5.82;;;13.50;99.90;;;;;;4840882;29;20061;-81
2023/10/30 00:03:59;;;;;;;19.98;6.88;;;13.40;99.90;;;;;;4841125;29;20501;-79
2023/10/30 00:06:25;;;;;;;25.35;6.57;;;13.40;99.90;;;;;;4840805;29;20030;-80
2023/10/30 00:08:51;;;;;;;27.33;7.60;;;13.40;99.90;;;;;;4840448;29;20045;-78
2023/10/30 00:11:17;;;;;;;21.88;7.20;;;13.30;99.90;;;;;;4808975;29;20311;-77
2023/10/30 00:13:43;;;;;;;13.63;6.22;;;13.30;99.90;;;;;;4840815;29;20033;-83
2023/10/30 00:16:10;;;;;;;11.98;5.95;;;13.30;99.90;;;;;;4840841;29;20201;-80
2023/10/30 00:18:38;;;;;;;14.80;6.00;;;13.20;99.90;;;;;;4840578;29;20806;-82
2023/10/30 00:21:05;;;;;;;17.15;7.07;;;13.20;99.90;;;;;;4840927;29;20542;-82
2023/10/30 00:23:31;;;;;;;13.98;6.10;;;13.20;99.90;;;;;;4840275;29;20030;-82
2023/10/30 00:25:57;;;;;;;13.65;5.63;;;13.20;99.90;;;;;;4840830;29;20037;-81
2023/10/30 00:28:23;;;;;;;12.30;4.93;;;13.20;99.90;;;;;;4840601;29;20026;-78
2023/10/30 00:30:49;;;;;;;12.90;5.75;;;13.20;99.90;;;;;;4836006;29;20166;-80
2023/10/30 00:33:15;;;;;;;16.05;6.57;;;13.10;99.90;;;;;;4824421;29;20128;-80
2023/10/30 00:35:43;;;;;;;12.82;6.55;;;12.80;99.90;;;;;;4840374;29;20021;-80
2023/10/30 00:38:09;;;;;;;12.02;6.32;;;12.70;99.90;;;;;;4840504;29;20045;-78
2023/10/30 00:40:35;;;;;;;12.40;6.80;;;12.60;99.90;;;;;;4840421;29;20117;-75
2023/10/30 00:43:01;;;;;;;14.88;7.43;;;12.60;99.90;;;;;;4840399;29;20504;-79
2023/10/30 00:45:27;;;;;;;12.60;7.13;;;12.50;99.90;;;;;;4840380;29;20033;-82
2023/10/30 00:47:53;;;;;;;13.63;7.53;;;12.40;99.90;;;;;;4823946;29;20079;-79
2023/10/30 00:50:18;;;;;;;12.52;6.32;;;12.40;99.90;;;;;;4823866;29;20038;-82
2023/10/30 00:52:44;;;;;;;15.95;5.80;;;12.40;99.90;;;;;;4823529;29;20037;-78
2023/10/30 00:55:10;;;;;;;9.73;5.18;;;12.40;99.90;;;;;;4823876;29;20030;-77
2023/10/30 00:57:36;;;;;;;10.10;5.65;;;12.40;99.90;;;;;;4840154;29;20475;-82
2023/10/30 01:00:04;;;;;;;10.50;5.07;;;12.30;99.90;;;;;;4840171;29;20037;-79
2023/10/30 01:02:29;;;;;;;12.80;6.40;;;12.30;99.90;;;;;;4823686;29;20026;-80
2023/10/30 01:04:55;;;;;;;12.32;6.30;;;12.20;99.90;;;;;;4824112;29;20074;-81
2023/10/30 01:07:21;;;;;;;12.27;5.85;;;12.10;99.90;;;;;;4839439;29;20083;-82
2023/10/30 01:09:49;;;;;;;12.23;5.90;;;12.10;99.90;;;;;;4823989;29;20050;-81
2023/10/30 01:12:15;;;;;;;17.08;7.30;;;12.10;99.90;;;;;;4823795;29;20030;-82
2023/10/30 01:14:40;;;;;;;14.13;6.93;;;12.20;99.90;;;;;;4840676;29;20038;-78
2023/10/30 01:17:08;;;;;;;12.05;6.35;;;12.20;99.90;;;;;;4841114;29;20462;-82
2023/10/30 01:19:35;;;;;;;11.23;5.93;;;12.30;99.90;;;;;;4841230;29;20046;-82
2023/10/30 01:22:00;;;;;;;15.20;6.85;;;12.20;99.90;;;;;;4839832;29;20074;-74
2023/10/30 01:24:26;;;;;;;11.75;5.78;;;12.20;99.90;;;;;;4824320;29;20034;-78
2023/10/30 01:26:53;;;;;;;10.55;5.57;;;12.30;99.90;;;;;;4841463;29;20359;-77
2023/10/30 01:29:19;;;;;;;27.60;13.65;;;12.10;99.90;;;;;;4824671;29;20121;-81
2023/10/30 01:31:45;;;;;;;42.47;19.63;;;12.10;99.90;;;;;;4841035;29;20086;-78
2023/10/30 01:34:10;;;;;;;32.30;15.82;;;12.10;99.90;;;;;;4840665;29;20030;-78
2023/10/30 01:36:36;;;;;;;30.67;13.57;;;12.10;99.90;;;;;;4840901;29;20041;-79
2023/10/30 01:39:02;;;;;;;26.48;13.38;;;12.10;99.90;;;;;;4824611;29;20494;-82
2023/10/30 01:41:28;;;;;;;22.58;9.70;;;12.10;99.90;;;;;;4824545;29;20027;-83
2023/10/30 01:43:54;;;;;;;11.60;6.07;;;12.00;99.90;;;;;;4840725;29;20391;-82
2023/10/30 01:46:20;;;;;;;12.32;5.97;;;12.10;99.90;;;;;;4824287;29;20529;-81
2023/10/30 01:48:47;;;;;;;10.27;5.53;;;12.00;99.90;;;;;;4824459;29;20030;-78
2023/10/30 01:51:14;;;;;;;14.93;5.28;;;12.00;99.90;;;;;;4824227;29;20050;-76
2023/10/30 01:53:40;;;;;;;14.38;6.45;;;12.00;99.90;;;;;;4841102;29;20046;-76
2023/10/30 01:56:06;;;;;;;10.48;4.82;;;12.10;99.90;;;;;;4823940;29;20048;-83
2023/10/30 01:58:33;;;;;;;15.65;8.05;;;12.10;99.90;;;;;;4824580;29;20044;-82
2023/10/30 02:00:59;;;;;;;14.13;6.45;;;12.00;99.90;;;;;;4824492;29;20030;-80
2023/10/30 02:03:26;;;;;;;9.77;5.30;;;11.90;99.90;;;;;;4841910;29;20030;-81
2023/10/30 02:05:52;;;;;;;21.65;10.32;;;11.90;99.90;;;;;;4827247;29;20026;-82
2023/10/30 02:08:19;;;;;;;15.18;6.90;;;11.90;99.90;;;;;;4827148;29;20125;-80
2023/10/30 02:10:47;;;;;;;15.75;7.38;;;11.80;99.90;;;;;;4827329;29;20045;-76
2023/10/30 02:13:22;;;;;;;17.75;7.80;;;11.80;99.90;;;;;;4827625;29;20034;-80
2023/10/30 02:15:48;;;;;;;14.88;6.70;;;11.80;99.90;;;;;;4827707;29;20117;-79
2023/10/30 02:18:15;;;;;;;16.35;7.85;;;11.80;99.90;;;;;;4843284;29;20038;-79
2023/10/30 02:20:41;;;;;;;13.60;7.53;;;11.80;99.90;;;;;;4843926;29;20057;-78
2023/10/30 02:23:06;;;;;;;19.25;8.23;;;11.80;99.90;;;;;;4843477;29;20034;-80
2023/10/30 02:25:32;;;;;;;17.92;8.02;;;11.80;99.90;;;;;;4843959;29;20378;-79
2023/10/30 02:27:58;;;;;;;18.67;8.27;;;11.70;99.90;;;;;;4826904;29;20049;-82
2023/10/30 02:30:26;;;;;;;19.45;8.65;;;11.60;99.90;;;;;;4843821;29;20040;-77
2023/10/30 02:32:52;;;;;;;14.60;6.50;;;11.50;99.90;;;;;;4843453;29;20026;-76
2023/10/30 02:35:19;;;;;;;14.52;6.75;;;11.50;99.90;;;;;;4843774;29;20064;-77
2023/10/30 02:37:46;;;;;;;14.82;6.70;;;11.50;99.90;;;;;;4843622;29;20090;-78
2023/10/30 02:40:13;;;;;;;15.68;7.38;;;;;;;;;;4826498;29;20069;-76
2023/10/30 02:42:40;;;;;;;13.73;7.35;;;11.30;99.90;;;;;;4827175;29;20083;-79
2023/10/30 02:45:06;;;;;;;15.38;8.85;;;11.20;99.90;;;;;;4826735;29;20124;-83
2023/10/30 02:47:33;;;;;;;15.60;7.72;;;11.10;99.90;;;;;;4843415;29;20380;-78
2023/10/30 02:50:01;;;;;;;12.38;7.22;;;11.20;99.90;;;;;;4843082;29;20450;-82
2023/10/30 02:52:28;;;;;;;13.60;6.88;;;11.20;99.90;;;;;;4843698;29;20029;-82
2023/10/30 02:54:54;;;;;;;15.27;7.78;;;11.30;99.90;;;;;;4826731;29;20034;-76
2023/10/30 02:57:21;;;;;;;11.65;6.72;;;11.30;99.90;;;;;;4826524;29;20026;-80
2023/10/30 02:59:47;;;;;;;13.73;7.35;;;11.30;99.90;;;;;;4843414;29;20057;-77
2023/10/30 03:02:13;;;;;;;13.77;7.35;;;11.40;99.90;;;;;;4826361;29;20042;-78
2023/10/30 03:04:39;;;;;;;13.32;6.85;;;11.30;99.90;;;;;;4843510;29;20034;-79
2023/10/30 03:07:04;;;;;;;14.32;7.15;;;11.30;99.90;;;;;;4842976;29;20022;-82
2023/10/30 03:09:34;;;;;;;14.18;6.85;;;11.30;99.90;;;;;;4825055;29;20409;-79
2023/10/30 03:12:00;;;;;;;12.15;6.03;;;11.30;99.90;;;;;;4842609;29;20491;-77
2023/10/30 03:14:26;;;;;;;12.93;6.93;;;11.30;99.90;;;;;;4826289;29;20126;-79
2023/10/30 03:16:53;;;;;;;16.05;7.57;;;11.30;99.90;;;;;;4843140;29;20026;-77
2023/10/30 03:19:19;;;;;;;14.98;7.22;;;11.30;99.90;;;;;;4842819;29;20042;-77
2023/10/30 03:21:45;;;;;;;17.05;7.28;;;11.40;99.90;;;;;;4826141;29;20470;-80
2023/10/30 03:24:11;;;;;;;18.75;7.45;;;11.40;99.90;;;;;;4825331;29;20071;-76
2023/10/30 03:26:37;;;;;;;16.25;7.53;;;11.40;99.90;;;;;;4825798;29;20029;-81
2023/10/30 03:29:03;;;;;;;16.42;6.97;;;11.40;99.90;;;;;;4842262;29;20030;-79
2023/10/30 03:31:29;;;;;;;15.57;6.63;;;11.40;99.90;;;;;;4841986;29;20534;-77
2023/10/30 03:33:54;;;;;;;19.08;7.88;;;11.40;99.90;;;;;;4842290;29;20530;-76
2023/10/30 03:36:23;;;;;;;14.98;7.60;;;11.20;99.90;;;;;;4842993;29;20049;-76
2023/10/30 03:38:50;;;;;;;15.13;6.93;;;11.20;99.90;;;;;;4842359;29;20029;-75
2023/10/30 03:41:20;;;;;;;15.82;7.68;;;11.20;99.90;;;;;;4842611;29;20048;-76
2023/10/30 03:43:47;;;;;;;14.85;7.85;;;11.20;99.90;;;;;;4842431;29;20026;-76
2023/10/30 03:46:12;;;;;;;16.35;7.00;;;11.30;99.90;;;;;;4841820;29;20040;-80
2023/10/30 03:48:40;;;;;;;18.02;8.02;;;11.30;99.90;;;;;;4826162;29;20034;-76
2023/10/30 03:51:06;;;;;;;12.73;6.75;;;11.30;99.90;;;;;;4842208;29;20026;-81
2023/10/30 03:53:32;;;;;;;13.95;7.95;;;11.40;99.90;;;;;;4842209;29;20079;-77
2023/10/30 03:55:58;;;;;;;13.93;8.07;;;11.40;99.90;;;;;;4841636;29;20021;-83
2023/10/30 03:58:25;;;;;;;17.55;7.55;;;11.30;99.90;;;;;;4842354;29;20045;-80
2023/10/30 04:00:51;;;;;;;18.65;10.30;;;11.20;99.90;;;;;;4841774;29;20032;-78
2023/10/30 04:03:17;;;;;;;69.10;42.58;;;11.20;99.90;;;;;;4842206;29;20082;-82
2023/10/30 04:05:43;;;;;;;33.03;19.10;;;11.20;99.90;;;;;;4841843;29;20377;-80
2023/10/30 04:08:09;;;;;;;29.75;18.27;;;11.30;99.90;;;;;;4842080;29;20037;-78
2023/10/30 04:10:35;;;;;;;21.00;13.88;;;11.30;99.90;;;;;;4841488;29;20054;-80
2023/10/30 04:13:01;;;;;;;18.05;9.13;;;11.30;99.90;;;;;;4841726;29;20041;-78
2023/10/30 04:15:27;;;;;;;17.48;8.80;;;11.40;99.90;;;;;;4841077;29;20467;-82
2023/10/30 04:17:54;;;;;;;18.67;8.50;;;11.30;99.90;;;;;;4840684;29;20038;-79
2023/10/30 04:20:20;;;;;;;17.60;8.10;;;11.40;99.90;;;;;;4841240;29;20041;-82
2023/10/30 04:22:49;;;;;;;14.13;7.05;;;11.40;99.90;;;;;;4841375;29;20041;-80
2023/10/30 04:25:17;;;;;;;13.93;6.88;;;11.30;99.90;;;;;;4841452;29;20026;-81
2023/10/30 04:27:43;;;;;;;16.23;7.68;;;11.30;99.90;;;;;;4840415;29;20026;-81
2023/10/30 04:30:09;;;;;;;16.17;7.97;;;11.30;99.90;;;;;;4841611;29;20041;-81
2023/10/30 04:32:35;;;;;;;15.93;6.90;;;11.20;99.90;;;;;;4840464;29;20053;-77
2023/10/30 04:35:01;;;;;;;13.75;6.93;;;11.20;99.90;;;;;;4840717;29;20121;-77
2023/10/30 04:37:27;;;;;;;15.45;7.82;;;11.20;99.90;;;;;;4841156;29;20022;-76
2023/10/30 04:39:52;;;;;;;15.95;6.93;;;11.20;99.90;;;;;;4841050;29;20042;-81
2023/10/30 04:42:18;;;;;;;13.55;7.18;;;11.20;99.90;;;;;;4841110;29;20063;-81
2023/10/30 04:44:44;;;;;;;16.10;6.55;;;11.20;99.90;;;;;;4840732;29;20513;-77
2023/10/30 04:47:10;;;;;;;13.98;6.97;;;11.20;99.90;;;;;;4840802;29;20109;-81
2023/10/30 04:49:37;;;;;;;20.58;8.40;;;11.10;99.90;;;;;;4840868;29;20038;-82
2023/10/30 04:52:04;;;;;;;17.58;8.55;;;11.10;99.90;;;;;;4834131;29;20049;-78
2023/10/30 04:54:30;;;;;;;12.38;7.50;;;11.10;99.90;;;;;;4841181;29;20094;-78
2023/10/30 04:56:56;;;;;;;15.43;6.57;;;11.10;99.90;;;;;;4841123;29;20026;-77
2023/10/30 04:59:21;;;;;;;16.33;6.78;;;11.10;99.90;;;;;;4841547;29;20447;-79
2023/10/30 05:01:47;;;;;;;13.95;7.20;;;11.10;99.90;;;;;;4841047;29;20539;-78
2023/10/30 05:04:15;;;;;;;14.73;8.23;;;11.10;99.90;;;;;;4841276;29;20084;-81
2023/10/30 05:06:41;;;;;;;18.33;7.68;;;11.20;99.90;;;;;;4840851;29;20018;-82
2023/10/30 05:09:06;;;;;;;14.38;7.05;;;11.20;99.90;;;;;;4841287;29;20062;-83
2023/10/30 05:11:38;;;;;;;16.05;7.30;;;11.20;99.90;;;;;;4841118;29;20034;-83
2023/10/30 05:14:04;;;;;;;15.77;7.93;;;11.10;99.90;;;;;;4841374;29;20030;-82
2023/10/30 05:16:30;;;;;;;15.40;8.30;;;10.80;99.90;;;;;;4840335;29;20018;-83
2023/10/30 05:18:57;;;;;;;15.57;8.23;;;10.70;99.90;;;;;;4841467;29;20064;-81
2023/10/30 05:21:23;;;;;;;15.38;7.13;;;10.70;99.90;;;;;;4843998;29;20029;-83
2023/10/30 05:23:49;;;;;;;13.30;7.20;;;10.80;99.90;;;;;;4844622;29;20038;-84
2023/10/30 05:26:15;;;;;;;14.93;7.72;;;10.90;99.90;;;;;;4841547;29;20138;-82
2023/10/30 05:28:41;;;;;;;18.08;8.52;;;11.00;99.90;;;;;;4834703;29;20030;-83
2023/10/30 05:31:07;;;;;;;17.50;7.82;;;10.90;99.90;;;;;;4841014;29;20034;-83
2023/10/30 05:33:34;;;;;;;16.20;8.70;;;10.90;99.90;;;;;;4840530;29;20030;-79
2023/10/30 05:36:02;;;;;;;19.92;9.93;;;10.90;99.90;;;;;;4840779;29;20423;-80
2023/10/30 05:38:28;;;;;;;22.45;11.57;;;10.90;99.90;;;;;;4842322;29;20045;-81
2023/10/30 05:40:54;;;;;;;20.27;10.73;;;10.90;99.90;;;;;;4844623;29;20075;-81
2023/10/30 05:43:20;;;;;;;23.42;11.95;;;11.10;99.90;;;;;;4844617;29;20037;-80
2023/10/30 05:45:50;;;;;;;23.48;13.73;;;11.20;99.90;;;;;;4843954;29;20026;-80
2023/10/30 05:48:16;;;;;;;26.92;15.70;;;11.20;99.90;;;;;;4827835;29;20388;-78
2023/10/30 05:50:42;;;;;;;27.33;12.43;;;11.30;99.90;;;;;;4844628;29;20061;-80
2023/10/30 05:53:08;;;;;;;24.23;12.77;;;11.40;99.90;;;;;;4844703;29;20457;-80
2023/10/30 05:55:34;;;;;;;24.15;11.75;;;11.40;99.90;;;;;;4843899;29;20022;-80
2023/10/30 05:58:00;;;;;;;24.55;12.25;;;11.40;99.90;;;;;;4844662;29;20038;-79
2023/10/30 06:00:26;;;;;;;31.45;18.73;;;11.40;99.90;;;;;;4844137;29;20559;-80
2023/10/30 06:02:53;;;;;;;29.55;16.58;;;11.40;99.90;;;;;;4844615;29;20124;-79
2023/10/30 06:05:19;;;;;;;27.52;15.23;;;11.40;99.90;;;;;;4843942;29;20022;-78
2023/10/30 06:07:45;;;;;;;26.27;16.65;;;11.40;99.90;;;;;;4844093;29;20090;-80
2023/10/30 06:10:11;;;;;;;31.45;19.38;;;11.50;99.90;;;;;;4843994;29;20053;-80
2023/10/30 06:12:38;;;;;;;34.83;16.33;;;11.60;99.90;;;;;;4843785;29;20376;-80
2023/10/30 06:15:05;;;;;;;28.40;17.10;;;11.60;99.90;;;;;;4844170;29;20030;-80
2023/10/30 06:17:31;;;;;;;25.73;15.25;;;11.70;99.90;;;;;;4827107;29;20383;-80
2023/10/30 06:19:56;;;;;;;28.77;14.32;;;11.80;99.90;;;;;;4849716;29;20036;-78
2023/10/30 06:22:22;;;;;;;27.55;11.60;;;11.70;99.90;;;;;;4833854;29;20443;-79
2023/10/30 06:24:48;;;;;;;23.23;12.00;;;11.60;99.90;;;;;;4843783;29;20042;-80
2023/10/30 06:27:14;;;;;;;25.05;10.98;;;11.70;99.90;;;;;;4850050;29;20032;-79
2023/10/30 06:29:40;;;;;;;23.35;12.00;;;11.80;99.90;;;;;;4846731;29;20475;-79
2023/10/30 06:32:07;;;;;;;28.48;14.93;;;11.90;99.90;;;;;;4843711;29;20082;-80
2023/10/30 06:34:33;;;;;;;40.55;23.67;;;12.00;99.90;;;;;;4855865;29;20469;-75
2023/10/30 06:36:59;;;;;;;43.15;25.25;;;12.00;99.90;;;;;;4843574;29;20479;-77
2023/10/30 06:39:25;;;;;;;44.38;22.83;;;12.10;99.90;;;;;;4843309;29;20045;-79
2023/10/30 06:41:55;;;;;;;31.27;18.70;;;12.10;99.90;;;;;;4843881;29;20029;-80
2023/10/30 06:44:22;;;;;;;36.13;15.52;;;12.20;99.90;;;;;;4843340;29;20022;-81
2023/10/30 06:46:50;;;;;;;33.83;15.35;;;12.20;99.90;;;;;;4843364;29;20034;-80
2023/10/30 06:49:16;;;;;;;29.63;14.68;;;12.20;99.90;;;;;;4842657;29;20479;-81
2023/10/30 06:51:43;;;;;;;27.02;15.07;;;12.40;99.90;;;;;;4842998;29;20367;-80
2023/10/30 06:54:12;;;;;;;27.23;16.02;;;12.50;99.90;;;;;;4826215;29;20478;-78
2023/10/30 06:56:39;;;;;;;25.45;14.85;;;12.50;99.90;;;;;;4843388;29;20075;-79
2023/10/30 06:59:05;;;;;;;27.25;11.55;;;12.70;99.90;;;;;;4843312;29;20038;-80
2023/10/30 07:01:44;;;;;;;19.85;10.35;;;12.80;99.90;;;;;;4841378;29;20504;-83
2023/10/30 07:04:11;;;;;;;21.10;10.98;;;12.90;99.90;;;;;;4843691;29;20042;-82
2023/10/30 07:06:38;;;;;;;22.38;10.80;;;13.00;99.90;;;;;;4842934;29;20028;-82
2023/10/30 07:09:07;;;;;;;23.20;10.82;;;13.10;99.90;;;;;;4842918;29;20562;-83
2023/10/30 07:11:34;;;;;;;28.67;11.00;;;13.20;99.90;;;;;;4842563;29;20543;-81
2023/10/30 07:14:03;;;;;;;27.85;12.63;;;13.20;99.90;;;;;;4842187;29;20038;-78
2023/10/30 07:16:33;;;;;;;21.75;10.43;;;13.20;99.90;;;;;;4843252;29;20037;-82
2023/10/30 07:18:59;;;;;;;22.73;9.05;;;13.30;99.90;;;;;;4842595;29;20042;-83
2023/10/30 07:21:26;;;;;;;17.95;7.88;;;13.20;99.90;;;;;;4843230;29;20026;-82
2023/10/30 07:23:52;;;;;;;15.07;7.47;;;13.10;99.90;;;;;;4842845;29;20036;-82
2023/10/30 07:26:19;;;;;;;18.73;7.90;;;13.30;99.90;;;;;;4842847;29;20030;-82
2023/10/30 07:28:45;;;;;;;29.35;8.35;;;13.50;99.90;;;;;;4842270;29;20041;-83
2023/10/30 07:31:11;;;;;;;18.52;8.18;;;13.50;99.90;;;;;;4841854;29;20022;-81
2023/10/30 07:33:37;;;;;;;16.65;7.18;;;13.40;99.90;;;;;;4842767;29;20471;-83
2023/10/30 07:36:03;;;;;;;16.20;8.85;;;13.60;99.90;;;;;;4842746;29;20030;-82
2023/10/30 07:38:29;;;;;;;22.38;8.88;;;13.70;99.90;;;;;;4842367;29;20191;-82
2023/10/30 07:40:55;;;;;;;25.33;9.43;;;13.80;99.90;;;;;;4842478;29;20022;-82
2023/10/30 07:43:22;;;;;;;16.58;7.10;;;14.00;99.90;;;;;;4830335;29;20041;-83
2023/10/30 07:45:48;;;;;;;21.88;8.85;;;14.10;99.90;;;;;;4842370;29;20042;-80
2023/10/30 07:48:14;;;;;;;12.27;6.72;;;14.30;99.90;;;;;;4830590;29;20040;-82
2023/10/30 07:50:40;;;;;;;22.33;9.25;;;14.30;99.90;;;;;;4841981;29;20101;-81
2023/10/30 07:53:06;;;;;;;22.40;9.38;;;14.30;99.90;;;;;;4842579;29;20114;-82
2023/10/30 07:55:33;;;;;;;15.40;7.40;;;14.50;99.90;;;;;;4841967;29;20075;-81
2023/10/30 07:57:58;;;;;;;11.40;6.10;;;14.80;99.90;;;;;;4842458;29;20052;-81
2023/10/30 08:00:24;;;;;;;10.50;5.05;;;15.00;99.90;;;;;;4841529;29;20014;-81
2023/10/30 08:02:50;;;;;;;6.93;3.90;;;15.20;99.90;;;;;;4841836;29;20033;-81
2023/10/30 08:05:16;;;;;;;8.70;4.05;;;15.20;99.90;;;;;;4840988;29;20036;-80
2023/10/30 08:07:46;;;;;;;11.05;4.22;;;15.40;99.90;;;;;;4842000;29;20030;-80
2023/10/30 08:10:12;;;;;;;13.38;5.38;;;15.60;99.90;;;;;;4841824;29;20554;-80
2023/10/30 08:12:40;;;;;;;12.18;5.25;;;15.80;99.90;;;;;;4847785;29;20499;-80
2023/10/30 08:15:07;;;;;;;13.02;5.97;;;16.00;99.90;;;;;;4842929;29;20037;-81
2023/10/30 08:17:33;;;;;;;16.00;7.25;;;16.30;99.90;;;;;;4841646;29;20094;-81
2023/10/30 08:19:59;;;;;;;13.38;8.32;;;16.60;99.90;;;;;;4841955;29;20097;-82
2023/10/30 08:22:25;;;;;;;16.10;11.27;;;16.80;99.90;;;;;;4841940;29;20037;-83
2023/10/30 08:24:51;;;;;;;17.83;11.68;;;17.00;99.90;;;;;;4840608;29;20069;-81
2023/10/30 08:27:18;;;;;;;24.58;13.07;;;17.30;99.90;;;;;;4841491;29;20462;-83
2023/10/30 08:29:43;;;;;;;23.63;15.18;;;17.50;99.90;;;;;;4841730;29;20086;-81
2023/10/30 08:32:09;;;;;;;21.83;13.48;;;17.60;99.90;;;;;;4841394;29;20496;-82
2023/10/30 08:34:35;;;;;;;21.73;10.88;;;17.70;99.90;;;;;;4842336;29;20044;-82
2023/10/30 08:37:01;;;;;;;16.88;8.45;;;17.90;99.90;;;;;;4853388;29;20100;-83
2023/10/30 08:39:27;;;;;;;20.75;12.65;;;18.00;99.90;;;;;;4841491;29;20403;-77
2023/10/30 08:41:53;;;;;;;21.17;13.05;;;18.20;99.90;;;;;;4841625;29;20033;-83
2023/10/30 08:44:19;;;;;;;23.98;12.40;;;18.30;99.90;;;;;;4841009;29;20030;-83
2023/10/30 08:46:44;;;;;;;23.50;12.32;;;18.40;99.90;;;;;;4845699;29;20101;-83
2023/10/30 08:49:10;;;;;;;16.40;9.77;;;18.20;99.90;;;;;;4843260;29;20482;-83
2023/10/30 08:51:40;;;;;;;17.10;9.25;;;18.30;99.90;;;;;;4846416;29;20502;-78
2023/10/30 08:54:06;;;;;;;21.65;8.57;;;18.30;99.90;;;;;;4846566;29;20034;-86
2023/10/30 08:56:32;;;;;;;14.82;6.95;;;18.50;99.90;;;;;;4843386;29;20535;-85
2023/10/30 08:58:58;;;;;;;13.90;6.35;;;18.80;99.90;;;;;;4842801;29;20068;-84
2023/10/30 09:01:24;;;;;;;14.60;6.60;;;18.90;99.90;;;;;;4842067;29;20030;-84
2023/10/30 09:03:52;;;;;;;14.02;6.32;;;19.00;99.90;;;;;;4844475;29;20036;-86
2023/10/30 09:06:18;;;;;;;16.15;7.57;;;19.20;99.90;;;;;;4842819;29;20025;-80
2023/10/30 09:08:44;;;;;;;25.40;11.55;;;19.30;99.90;;;;;;4842739;29;20057;-85
2023/10/30 09:11:10;;;;;;;36.58;23.63;;;19.50;99.90;;;;;;4841883;29;20118;-85
2023/10/30 09:13:36;;;;;;;28.48;22.75;;;19.70;99.90;;;;;;4840456;29;20034;-83
2023/10/30 09:16:02;;;;;;;30.20;20.55;;;19.90;99.90;;;;;;4841477;29;20079;-85
2023/10/30 09:18:28;;;;;;;34.58;15.98;;;20.10;99.90;;;;;;4840954;29;20066;-82
2023/10/30 09:20:54;;;;;;;20.55;12.98;;;20.30;99.40;;;;;;4841354;29;20076;-82
2023/10/30 09:23:20;;;;;;;11.10;6.70;;;20.40;98.80;;;;;;4841235;29;20050;-85
2023/10/30 09:25:45;;;;;;;11.80;6.97;;;20.50;99.10;;;;;;4842771;29;20022;-81
2023/10/30 09:28:11;;;;;;;10.30;5.07;;;20.60;99.90;;;;;;4841353;29;20364;-85
2023/10/30 09:30:37;;;;;;;10.07;4.95;;;20.40;97.80;;;;;;4840247;29;20494;-76
2023/10/30 09:33:03;;;;;;;8.80;4.88;;;20.60;97.60;;;;;;4841535;29;20029;-84
2023/10/30 09:35:30;;;;;;;9.35;5.20;;;20.80;97.70;;;;;;4841414;29;20029;-82
2023/10/30 09:37:56;;;;;;;14.10;8.13;;;20.90;98.70;;;;;;4843038;29;20437;-85
2023/10/30 09:40:28;;;;;;;12.02;6.25;;;21.00;96.30;;;;;;4839715;29;20034;-83
2023/10/30 09:42:55;;;;;;;18.15;11.35;;;21.00;96.30;;;;;;4851269;29;20490;-84
2023/10/30 09:45:22;;;;;;;15.75;6.63;;;20.70;95.50;;;;;;4826412;29;20032;-83
2023/10/30 09:47:52;;;;;;;13.52;7.50;;;20.90;96.90;;;;;;4843909;29;20030;-80
2023/10/30 09:50:20;;;;;;;7.45;3.40;;;21.20;96.50;;;;;;4841401;29;20113;-82
2023/10/30 09:52:51;;;;;;;11.43;6.15;;;21.40;94.70;;;;;;4840767;29;20065;-77
2023/10/30 09:55:22;;;;;;;10.18;6.95;;;21.50;94.80;;;;;;4837226;29;20104;-84
2023/10/30 09:57:51;;;;;;;8.40;3.63;;;21.70;94.70;;;;;;4840570;29;20060;-85
2023/10/30 10:00:18;;;;;;;9.63;2.95;;;21.80;93.40;;;;;;4841052;29;20032;-83
2023/10/30 10:02:44;;;;;;;7.10;2.88;;;21.80;93.70;;;;;;4842132;29;20041;-84
2023/10/30 10:05:16;;;;;;;9.25;3.30;;;21.80;92.90;;;;;;4847389;29;20107;-85
2023/10/30 10:07:42;;;;;;;7.75;3.55;;;21.50;92.80;;;;;;4851368;29;20034;-77
2023/10/30 10:10:08;;;;;;;5.75;2.97;;;21.60;94.00;;;;;;4842133;29;20046;-85
2023/10/30 10:12:36;;;;;;;4.57;2.38;;;21.60;93.10;;;;;;4830429;29;20034;-82
2023/10/30 10:15:06;;;;;;;4.80;2.72;;;21.60;93.30;;;;;;4842509;29;20098;-78
2023/10/30 10:17:44;;;;;;;8.02;3.10;;;21.80;93.40;;;;;;4842384;29;20038;-79
2023/10/30 10:20:11;;;;;;;5.40;3.05;;;21.80;92.20;;;;;;4836518;29;20125;-85
2023/10/30 10:22:38;;;;;;;5.47;2.58;;;22.00;93.00;;;;;;4829544;29;20023;-86
2023/10/30 10:25:07;;;;;;;7.80;2.83;;;21.80;90.20;;;;;;4837711;29;20399;-86
2023/10/30 10:27:33;;;;;;;4.95;2.72;;;21.80;90.10;;;;;;4835225;29;20415;-83
2023/10/30 10:29:59;;;;;;;6.95;2.58;;;22.00;89.90;;;;;;4847423;29;20053;-82
2023/10/30 10:32:26;;;;;;;6.03;2.70;;;21.80;88.50;;;;;;4846035;29;20054;-84
2023/10/30 10:35:02;;;;;;;10.25;3.20;;;21.90;90.00;;;;;;4851822;29;20034;-84
2023/10/30 10:37:29;;;;;;;6.93;3.03;;;22.10;90.90;;;;;;4851101;29;20041;-78
2023/10/30 10:39:55;;;;;;;8.20;3.28;;;22.10;90.70;;;;;;4850114;29;20498;-85
2023/10/30 10:42:25;;;;;;;5.78;3.10;;;22.30;90.10;;;;;;4851616;29;20030;-84
2023/10/30 10:44:53;;;;;;;7.85;3.20;;;23.30;98.30;;;;;;4849742;29;20042;-87
2023/10/30 10:47:22;;;;;;;7.35;2.95;;;22.90;96.70;;;;;;4838942;29;20034;-86
2023/10/30 10:49:49;;;;;;;9.05;3.63;;;22.80;90.60;;;;;;4849239;29;20032;-85
2023/10/30 10:52:18;;;;;;;3.45;1.92;;;22.90;89.50;;;;;;4851994;29;20030;-81
2023/10/30 10:54:47;;;;;;;6.60;3.13;;;22.90;90.80;;;;;;4835346;29;20058;-84
2023/10/30 10:57:20;;;;;;;7.55;2.80;;;22.90;87.60;;;;;;4846616;29;20049;-80
2023/10/30 10:59:51;;;;;;;8.80;2.88;;;23.10;88.60;;;;;;4858871;29;20040;-81
2023/10/30 11:02:21;;;;;;;5.05;2.45;;;23.10;88.20;;;;;;4853155;29;20251;-80
2023/10/30 11:04:51;;;;;;;11.50;3.33;;;23.20;87.90;;;;;;4840565;29;20026;-86
2023/10/30 11:07:27;;;;;;;7.45;3.08;;;23.30;88.80;;;;;;4842664;29;20478;-86
2023/10/30 11:09:57;;;;;;;5.50;2.50;;;23.50;88.70;;;;;;4849362;29;20061;-82
2023/10/30 11:12:39;;;;;;;7.40;2.80;;;;;;;;;;4850727;29;20049;-85
2023/10/30 11:15:32;;;;;;;9.15;3.15;;;23.70;83.80;;;;;;4850023;29;20094;-84
2023/10/30 11:18:20;;;;;;;8.27;2.92;;;23.60;82.20;;;;;;4844090;29;20053;-87
2023/10/30 11:20:47;;;;;;;7.93;3.00;;;23.60;82.50;;;;;;4848104;29;20467;-86
2023/10/30 11:23:33;;;;;;;7.72;2.72;;;23.60;83.50;;;;;;4844828;29;20034;-85
2023/10/30 11:25:58;;;;;;;7.90;2.72;;;23.60;85.70;;;;;;4847012;29;20033;-87
2023/10/30 11:28:27;;;;;;;10.13;2.90;;;23.70;82.60;;;;;;4848771;29;20056;-86
2023/10/30 11:30:53;;;;;;;8.65;2.67;;;23.70;81.70;;;;;;4845965;29;20114;-88
2023/10/30 11:33:21;;;;;;;9.38;2.58;;;23.80;81.90;;;;;;4844849;29;20112;-86
2023/10/30 11:36:11;;;;;;;8.38;2.50;;;23.80;79.90;;;;;;4827600;29;20040;-88
2023/10/30 11:39:09;;;;;;;7.07;2.42;;;23.90;86.90;;;;;;4829815;29;20046;-86
2023/10/30 11:41:42;;;;;;;4.32;2.67;;;24.00;81.50;;;;;;4798127;29;20051;-86
2023/10/30 11:44:12;;;;;;;8.40;2.55;;;23.90;79.70;;;;;;4798913;29;20096;-89
2023/10/30 11:46:39;;;;;;;7.10;2.17;;;24.10;82.40;;;;;;4775611;29;20140;-87
2023/10/30 11:49:13;;;;;;;7.97;3.00;;;24.20;83.00;;;;;;4789006;29;20031;-87
2023/10/30 11:51:42;;;;;;;10.63;2.50;;;24.10;78.90;;;;;;4788008;30;20051;-78
2023/10/30 11:54:10;;;;;;;5.22;2.47;;;24.30;85.30;;;;;;4789398;29;20130;-77
2023/10/30 11:56:39;;;;;;;6.18;2.47;;;;;;;;;;4788676;30;20110;-87
2023/10/30 11:59:05;;;;;;;4.30;2.40;;;;;;;;;;4789864;30;20043;-86
2023/10/30 12:01:32;;;;;;;17.48;2.60;;;24.20;99.40;;;;;;4789933;30;20083;-88
2023/10/30 12:03:59;;;;;;;5.82;2.70;;;24.30;79.80;;;;;;4791568;29;20031;-83
2023/10/30 12:06:26;;;;;;;7.32;2.88;;;24.20;78.60;;;;;;4800515;29;20593;-86
2023/10/30 12:08:52;;;;;;;11.18;2.78;;;24.10;78.00;;;;;;4789585;29;20118;-88
2023/10/30 12:11:19;;;;;;;11.90;3.95;;;24.10;78.50;;;;;;4789195;30;20091;-87
2023/10/30 12:13:47;;;;;;;7.95;2.30;;;24.20;79.50;;;;;;4789111;29;20031;-80
2023/10/30 12:16:13;;;;;;;5.28;2.75;;;24.10;78.90;;;;;;4790182;29;20046;-86
2023/10/30 12:18:39;;;;;;;9.27;2.90;;;24.10;79.60;;;;;;4822252;29;20050;-81
2023/10/30 12:21:05;;;;;;;5.28;2.50;;;24.10;78.50;;;;;;4845831;29;20030;-84
2023/10/30 12:23:31;;;;;;;6.38;2.53;;;24.10;79.00;;;;;;4845775;29;20489;-86
2023/10/30 12:26:06;;;;;;;6.03;2.65;;;24.10;78.40;;;;;;4844288;29;20109;-86
2023/10/30 12:28:36;;;;;;;8.80;2.45;;;24.10;77.70;;;;;;4857686;29;20037;-86
2023/10/30 12:31:22;;;;;;;10.13;3.20;;;24.10;78.20;;;;;;4844923;29;20086;-86
2023/10/30 12:34:12;;;;;;;6.68;2.75;;;24.10;78.90;;;;;;4834325;29;20026;-87
2023/10/30 12:36:39;;;;;;;6.32;2.70;;;24.00;78.90;;;;;;4844190;29;20096;-87
2023/10/30 12:39:30;;;;;;;6.25;3.20;;;23.80;78.10;;;;;;4847849;29;20129;-81